createdAt,value
2019-02-18T00:00:08.649Z,0
2019-02-18T00:01:08.712Z,0
2019-02-18T00:02:10.552Z,0
2019-02-18T00:03:08.649Z,0
2019-02-18T00:04:08.722Z,0
2019-02-18T00:05:08.709Z,0
2019-02-18T00:06:08.707Z,0
2019-02-18T00:07:14.406Z,0
2019-02-18T00:08:08.714Z,0
2019-02-18T00:09:08.687Z,0
2019-02-18T00:10:08.602Z,0
2019-02-18T00:11:08.623Z,0
2019-02-18T00:12:08.587Z,0
2019-02-18T00:13:08.627Z,0
2019-02-18T00:14:08.657Z,0
2019-02-18T00:15:08.749Z,0
2019-02-18T00:16:08.683Z,0
2019-02-18T00:17:08.752Z,0
2019-02-18T00:18:08.742Z,0
2019-02-18T00:19:08.704Z,0
2019-02-18T00:20:08.684Z,0
2019-02-18T00:21:08.751Z,0
2019-02-18T00:22:08.742Z,0
2019-02-18T00:23:08.686Z,0
2019-02-18T00:24:08.737Z,0
2019-02-18T00:25:08.665Z,0
2019-02-18T00:26:08.729Z,0
2019-02-18T00:27:08.668Z,0
2019-02-18T00:28:08.736Z,0
2019-02-18T00:29:08.676Z,0
2019-02-18T00:30:08.731Z,0
2019-02-18T00:31:08.670Z,0
2019-02-18T00:32:08.745Z,0
2019-02-18T00:33:08.671Z,0
2019-02-18T00:34:08.738Z,0
2019-02-18T00:35:08.747Z,0
2019-02-18T00:36:08.753Z,0
2019-02-18T00:37:08.664Z,0
2019-02-18T00:38:08.772Z,0
2019-02-18T00:39:08.763Z,0
2019-02-18T00:40:08.678Z,0
2019-02-18T00:41:08.680Z,0
2019-02-18T00:42:08.701Z,0
2019-02-18T00:43:08.754Z,0
2019-02-18T00:44:08.759Z,0
2019-02-18T00:45:08.748Z,0
2019-02-18T00:46:08.688Z,0
2019-02-18T00:47:08.745Z,0
2019-02-18T00:48:08.747Z,0
2019-02-18T00:49:08.694Z,0
2019-02-18T00:50:08.693Z,0
2019-02-18T00:51:08.760Z,0
2019-02-18T00:52:08.685Z,0
2019-02-18T00:53:08.751Z,0
2019-02-18T00:54:08.686Z,0
2019-02-18T00:55:08.694Z,0
2019-02-18T00:56:08.706Z,0
2019-02-18T00:57:08.767Z,0
2019-02-18T00:58:08.709Z,0
2019-02-18T00:59:08.710Z,0
2019-02-18T01:00:08.716Z,0
2019-02-18T01:01:08.772Z,0
2019-02-18T01:02:08.725Z,0
2019-02-18T01:03:08.715Z,0
2019-02-18T01:04:08.773Z,0
2019-02-18T01:05:08.686Z,0
2019-02-18T01:06:08.758Z,0
2019-02-18T01:07:08.764Z,0
2019-02-18T01:09:08.760Z,0
2019-02-18T01:10:08.690Z,0
2019-02-18T01:11:08.763Z,0
2019-02-18T01:12:08.825Z,0
2019-02-18T01:13:08.713Z,0
2019-02-18T01:14:08.764Z,0
2019-02-18T01:15:08.751Z,0
2019-02-18T01:16:08.751Z,0
2019-02-18T01:17:08.764Z,0
2019-02-18T01:18:08.721Z,0
2019-02-18T01:19:08.716Z,0
2019-02-18T01:20:08.715Z,0
2019-02-18T01:21:08.766Z,0
2019-02-18T01:22:08.753Z,0
2019-02-18T01:23:08.712Z,0
2019-02-18T01:24:08.674Z,0
2019-02-18T01:25:08.720Z,0
2019-02-18T01:26:08.771Z,0
2019-02-18T01:27:08.721Z,0
2019-02-18T01:28:08.682Z,0
2019-02-18T01:29:08.682Z,0
2019-02-18T01:30:08.679Z,0
2019-02-18T01:31:08.708Z,0
2019-02-18T01:32:08.704Z,0
2019-02-18T01:33:08.791Z,0
2019-02-18T01:34:08.769Z,0
2019-02-18T01:35:08.665Z,0
2019-02-18T01:36:08.694Z,0
2019-02-18T01:37:08.687Z,0
2019-02-18T01:38:08.738Z,0
2019-02-18T01:39:08.785Z,0
2019-02-18T01:40:08.708Z,0
2019-02-18T01:41:08.717Z,0
2019-02-18T01:42:08.709Z,0
2019-02-18T01:43:08.717Z,0
2019-02-18T01:44:08.751Z,0
2019-02-18T01:45:08.701Z,0
2019-02-18T01:46:08.778Z,0
2019-02-18T01:47:08.779Z,0
2019-02-18T01:48:08.687Z,0
2019-02-18T01:49:08.696Z,0
2019-02-18T01:50:08.780Z,0
2019-02-18T01:51:08.787Z,0
2019-02-18T01:52:08.743Z,0
2019-02-18T01:53:08.779Z,0
2019-02-18T01:54:08.721Z,0
2019-02-18T01:55:08.764Z,0
2019-02-18T01:56:08.799Z,0
2019-02-18T01:57:08.764Z,0
2019-02-18T01:58:08.833Z,0
2019-02-18T01:59:08.774Z,0
2019-02-18T02:00:08.753Z,0
2019-02-18T02:01:08.769Z,0
2019-02-18T02:02:08.800Z,0
2019-02-18T02:03:08.830Z,0
2019-02-18T02:04:08.828Z,0
2019-02-18T02:05:08.765Z,0
2019-02-18T02:06:08.701Z,0
2019-02-18T02:07:08.816Z,0
2019-02-18T02:08:08.818Z,0
2019-02-18T02:09:08.763Z,0
2019-02-18T02:10:08.828Z,0
2019-02-18T02:11:08.829Z,0
2019-02-18T02:12:08.778Z,0
2019-02-18T02:13:08.819Z,0
2019-02-18T02:14:08.887Z,0
2019-02-18T02:15:08.768Z,0
2019-02-18T02:16:08.804Z,0
2019-02-18T02:17:08.834Z,0
2019-02-18T02:18:08.716Z,0
2019-02-18T02:19:08.788Z,0
2019-02-18T02:20:08.832Z,0
2019-02-18T02:21:08.829Z,0
2019-02-18T02:22:08.841Z,0
2019-02-18T02:23:08.850Z,0
2019-02-18T02:24:08.812Z,0
2019-02-18T02:25:08.820Z,0
2019-02-18T02:26:08.815Z,0
2019-02-18T02:27:08.816Z,0
2019-02-18T02:28:08.750Z,0
2019-02-18T02:29:08.821Z,0
2019-02-18T02:30:08.763Z,0
2019-02-18T02:31:08.824Z,0
2019-02-18T02:32:08.749Z,0
2019-02-18T02:33:08.836Z,0
2019-02-18T02:34:08.761Z,0
2019-02-18T02:35:08.822Z,0
2019-02-18T02:36:08.776Z,0
2019-02-18T02:37:08.783Z,0
2019-02-18T02:38:08.810Z,0
2019-02-18T02:39:08.812Z,0
2019-02-18T02:40:08.815Z,0
2019-02-18T02:41:08.860Z,0
2019-02-18T02:42:08.823Z,0
2019-02-18T02:43:08.835Z,0
2019-02-18T02:44:08.826Z,0
2019-02-18T02:45:08.651Z,0
2019-02-18T02:46:08.651Z,0
2019-02-18T02:47:08.806Z,0
2019-02-18T02:48:08.759Z,0
2019-02-18T02:49:08.706Z,0
2019-02-18T02:50:08.779Z,0
2019-02-18T02:51:08.663Z,0
2019-02-18T02:52:08.735Z,0
2019-02-18T02:53:08.707Z,0
2019-02-18T02:54:08.652Z,0
2019-02-18T02:55:08.848Z,0
2019-02-18T02:56:08.878Z,0
2019-02-18T02:57:08.858Z,0
2019-02-18T02:58:08.859Z,0
2019-02-18T02:59:08.810Z,0
2019-02-18T03:00:08.803Z,0
2019-02-18T03:01:08.871Z,0
2019-02-18T03:02:08.736Z,0
2019-02-18T03:03:08.746Z,0
2019-02-18T03:04:08.816Z,0
2019-02-18T03:05:08.779Z,0
2019-02-18T03:06:08.846Z,0
2019-02-18T03:07:08.867Z,0
2019-02-18T03:08:20.047Z,0
2019-02-18T03:09:08.846Z,0
2019-02-18T03:10:08.774Z,0
2019-02-18T03:11:08.778Z,0
2019-02-18T03:12:08.846Z,0
2019-02-18T03:13:08.797Z,0
2019-02-18T03:14:08.780Z,0
2019-02-18T03:15:08.883Z,0
2019-02-18T03:16:08.892Z,0
2019-02-18T03:17:08.824Z,0
2019-02-18T03:18:08.894Z,0
2019-02-18T03:19:08.829Z,0
2019-02-18T03:20:08.826Z,0
2019-02-18T03:21:08.839Z,0
2019-02-18T03:22:08.931Z,0
2019-02-18T03:23:08.760Z,0
2019-02-18T03:24:08.854Z,0
2019-02-18T03:25:08.815Z,0
2019-02-18T03:26:08.775Z,0
2019-02-18T03:27:08.796Z,0
2019-02-18T03:28:08.840Z,0
2019-02-18T03:29:08.873Z,0
2019-02-18T03:30:08.915Z,0
2019-02-18T03:31:08.820Z,0
2019-02-18T03:32:08.869Z,0
2019-02-18T03:33:08.816Z,0
2019-02-18T03:34:08.842Z,0
2019-02-18T03:35:08.807Z,0
2019-02-18T03:36:08.801Z,0
2019-02-18T03:37:08.853Z,0
2019-02-18T03:38:08.782Z,0
2019-02-18T03:39:08.935Z,0
2019-02-18T03:40:08.800Z,0
2019-02-18T03:41:08.748Z,0
2019-02-18T03:42:08.796Z,0
2019-02-18T03:43:08.761Z,0
2019-02-18T03:44:08.857Z,0
2019-02-18T03:45:08.833Z,0
2019-02-18T03:46:08.832Z,0
2019-02-18T03:47:08.827Z,0
2019-02-18T03:48:08.808Z,0
2019-02-18T03:49:08.922Z,0
2019-02-18T03:50:08.875Z,0
2019-02-18T03:51:08.781Z,0
2019-02-18T03:52:08.777Z,0
2019-02-18T03:53:08.917Z,0
2019-02-18T03:54:08.774Z,0
2019-02-18T03:55:08.788Z,0
2019-02-18T03:56:08.898Z,0
2019-02-18T03:57:08.818Z,0
2019-02-18T03:58:08.839Z,0
2019-02-18T03:59:08.859Z,0
2019-02-18T04:00:08.859Z,0
2019-02-18T04:01:08.869Z,0
2019-02-18T04:02:08.897Z,0
2019-02-18T04:03:08.904Z,0
2019-02-18T04:04:08.913Z,0
2019-02-18T04:05:08.787Z,0
2019-02-18T04:06:08.854Z,0
2019-02-18T04:07:08.910Z,0
2019-02-18T04:08:08.786Z,0
2019-02-18T04:09:08.867Z,0
2019-02-18T04:10:08.788Z,0
2019-02-18T04:11:08.891Z,0
2019-02-18T04:12:08.799Z,0
2019-02-18T04:13:08.892Z,0
2019-02-18T04:14:08.932Z,0
2019-02-18T04:15:08.890Z,0
2019-02-18T04:16:08.884Z,0
2019-02-18T04:17:08.830Z,0
2019-02-18T04:18:08.894Z,0
2019-02-18T04:19:08.905Z,0
2019-02-18T04:20:08.831Z,0
2019-02-18T04:21:08.915Z,0
2019-02-18T04:22:08.836Z,0
2019-02-18T04:23:08.901Z,0
2019-02-18T04:24:08.904Z,0
2019-02-18T04:25:08.862Z,0
2019-02-18T04:26:08.939Z,0
2019-02-18T04:27:08.938Z,0
2019-02-18T04:28:08.920Z,0
2019-02-18T04:29:08.804Z,0
2019-02-18T04:30:08.886Z,0
2019-02-18T04:31:08.862Z,0
2019-02-18T04:32:08.828Z,0
2019-02-18T04:33:08.939Z,0
2019-02-18T04:34:08.871Z,0
2019-02-18T04:35:08.786Z,0
2019-02-18T04:36:08.892Z,0
2019-02-18T04:37:08.909Z,0
2019-02-18T04:38:08.853Z,0
2019-02-18T04:39:08.908Z,0
2019-02-18T04:40:08.795Z,0
2019-02-18T04:41:08.819Z,0
2019-02-18T04:42:08.831Z,0
2019-02-18T04:43:08.900Z,0
2019-02-18T04:44:08.851Z,0
2019-02-18T04:45:08.875Z,0
2019-02-18T04:46:08.913Z,0
2019-02-18T04:47:08.954Z,0
2019-02-18T04:48:08.933Z,0
2019-02-18T04:49:09.005Z,0
2019-02-18T04:50:08.913Z,0
2019-02-18T04:51:08.945Z,0
2019-02-18T04:52:08.884Z,0
2019-02-18T04:53:08.874Z,0
2019-02-18T04:54:08.906Z,0
2019-02-18T04:55:08.941Z,0
2019-02-18T04:56:08.945Z,0
2019-02-18T04:57:08.965Z,0
2019-02-18T04:58:08.904Z,0
2019-02-18T04:59:08.883Z,0
2019-02-18T05:00:08.914Z,0
2019-02-18T05:01:08.969Z,0
2019-02-18T05:02:08.893Z,0
2019-02-18T05:03:08.940Z,0
2019-02-18T05:04:08.943Z,0
2019-02-18T05:05:08.980Z,0
2019-02-18T05:06:08.929Z,0
2019-02-18T05:07:08.927Z,0
2019-02-18T05:08:08.858Z,0
2019-02-18T05:09:08.866Z,0
2019-02-18T05:10:08.884Z,0
2019-02-18T05:11:08.931Z,0
2019-02-18T05:12:08.933Z,0
2019-02-18T05:13:08.935Z,0
2019-02-18T05:14:08.934Z,0
2019-02-18T05:15:08.861Z,0
2019-02-18T05:16:09.011Z,0
2019-02-18T05:17:08.879Z,0
2019-02-18T05:18:08.934Z,0
2019-02-18T05:19:08.871Z,0
2019-02-18T05:20:08.814Z,0
2019-02-18T05:21:08.883Z,0
2019-02-18T05:22:08.960Z,0
2019-02-18T05:23:08.908Z,0
2019-02-18T05:24:08.927Z,0
2019-02-18T05:25:08.930Z,0
2019-02-18T05:26:08.902Z,0
2019-02-18T05:27:08.942Z,0
2019-02-18T05:28:08.979Z,0
2019-02-18T05:29:08.881Z,0
2019-02-18T05:30:08.928Z,0
2019-02-18T05:31:08.948Z,0
2019-02-18T05:32:08.918Z,0
2019-02-18T05:33:08.975Z,0
2019-02-18T05:34:08.848Z,0
2019-02-18T05:35:08.851Z,0
2019-02-18T05:36:08.908Z,0
2019-02-18T05:37:08.985Z,0
2019-02-18T05:38:08.922Z,0
2019-02-18T05:39:17.431Z,0
2019-02-18T05:40:08.992Z,0
2019-02-18T05:41:08.929Z,0
2019-02-18T05:42:08.862Z,0
2019-02-18T05:43:08.959Z,0
2019-02-18T05:44:09.001Z,0
2019-02-18T05:45:08.955Z,0
2019-02-18T05:46:08.960Z,0
2019-02-18T05:47:08.959Z,0
2019-02-18T05:48:08.924Z,0
2019-02-18T05:49:08.872Z,0
2019-02-18T05:50:08.843Z,0
2019-02-18T05:51:08.960Z,0
2019-02-18T05:52:08.958Z,0
2019-02-18T05:53:08.961Z,4
2019-02-18T05:54:08.955Z,4
2019-02-18T05:55:08.910Z,0
2019-02-18T05:56:08.917Z,0
2019-02-18T05:57:08.904Z,4
2019-02-18T05:58:08.981Z,4
2019-02-18T05:59:08.983Z,4
2019-02-18T06:00:08.979Z,8
2019-02-18T06:01:08.935Z,8
2019-02-18T06:02:08.928Z,8
2019-02-18T06:03:08.986Z,8
2019-02-18T06:04:08.910Z,16
2019-02-18T06:05:08.879Z,16
2019-02-18T06:06:08.919Z,20
2019-02-18T06:07:08.907Z,24
2019-02-18T06:08:08.973Z,24
2019-02-18T06:09:08.988Z,32
2019-02-18T06:10:08.910Z,40
2019-02-18T06:11:08.920Z,48
2019-02-18T06:12:08.910Z,56
2019-02-18T06:13:08.976Z,64
2019-02-18T06:14:08.918Z,76
2019-02-18T06:15:08.918Z,92
2019-02-18T06:16:08.976Z,104
2019-02-18T06:17:08.885Z,124
2019-02-18T06:18:09.015Z,144
2019-02-18T06:19:08.984Z,168
2019-02-18T06:20:08.981Z,196
2019-02-18T06:21:08.957Z,228
2019-02-18T06:22:08.981Z,264
2019-02-18T06:23:09.007Z,300
2019-02-18T06:24:08.943Z,344
2019-02-18T06:25:08.953Z,396
2019-02-18T06:26:08.966Z,444
2019-02-18T06:27:08.948Z,500
2019-02-18T06:28:08.896Z,564
2019-02-18T06:29:08.930Z,628
2019-02-18T06:30:08.894Z,692
2019-02-18T06:31:08.979Z,768
2019-02-18T06:32:08.896Z,844
2019-02-18T06:33:08.965Z,924
2019-02-18T06:34:09.021Z,1004
2019-02-18T06:35:08.902Z,1092
2019-02-18T06:36:09.022Z,1184
2019-02-18T06:37:09.004Z,1272
2019-02-18T06:38:09.005Z,1368
2019-02-18T06:39:08.948Z,1468
2019-02-18T06:40:09.022Z,1568
2019-02-18T06:41:09.024Z,1668
2019-02-18T06:42:11.136Z,1776
2019-02-18T06:43:09.009Z,1880
2019-02-18T06:44:09.039Z,1988
2019-02-18T06:45:08.946Z,2104
2019-02-18T06:46:09.014Z,2216
2019-02-18T06:47:08.908Z,2336
2019-02-18T06:48:08.937Z,2452
2019-02-18T06:49:08.954Z,2576
2019-02-18T06:50:09.010Z,2696
2019-02-18T06:51:08.939Z,2824
2019-02-18T06:52:09.080Z,2948
2019-02-18T06:53:08.942Z,3072
2019-02-18T06:54:09.022Z,3200
2019-02-18T06:55:08.942Z,3320
2019-02-18T06:56:08.907Z,3436
2019-02-18T06:57:08.995Z,3564
2019-02-18T06:58:08.880Z,3684
2019-02-18T06:59:08.927Z,3808
2019-02-18T07:00:08.907Z,3932
2019-02-18T07:01:09.006Z,4056
2019-02-18T07:02:08.912Z,4392
2019-02-18T07:03:08.917Z,4976
2019-02-18T07:04:09.005Z,5352
2019-02-18T07:05:08.961Z,5536
2019-02-18T07:06:08.918Z,5732
2019-02-18T07:07:09.051Z,5856
2019-02-18T07:08:09.039Z,6056
2019-02-18T07:09:08.952Z,6212
2019-02-18T07:10:08.964Z,6708
2019-02-18T07:11:08.907Z,7232
2019-02-18T07:12:08.960Z,7272
2019-02-18T07:13:08.898Z,7048
2019-02-18T07:14:09.006Z,6948
2019-02-18T07:15:08.940Z,6688
2019-02-18T07:16:09.018Z,7196
2019-02-18T07:17:10.441Z,8000
2019-02-18T07:18:09.024Z,8276
2019-02-18T07:19:08.947Z,7996
2019-02-18T07:20:09.023Z,7932
2019-02-18T07:21:08.946Z,8384
2019-02-18T07:22:08.947Z,8784
2019-02-18T07:23:08.957Z,9400
2019-02-18T07:24:08.950Z,9940
2019-02-18T07:25:09.023Z,11104
2019-02-18T07:26:08.957Z,12080
2019-02-18T07:27:09.026Z,12716
2019-02-18T07:28:08.958Z,13092
2019-02-18T07:29:09.055Z,13396
2019-02-18T07:30:09.029Z,13716
2019-02-18T07:31:08.938Z,14040
2019-02-18T07:32:09.033Z,14352
2019-02-18T07:33:09.039Z,14620
2019-02-18T07:34:08.979Z,14840
2019-02-18T07:35:09.035Z,15136
2019-02-18T07:36:08.982Z,15380
2019-02-18T07:37:09.037Z,15668
2019-02-18T07:38:08.968Z,15956
2019-02-18T07:39:08.970Z,16320
2019-02-18T07:40:09.038Z,16628
2019-02-18T07:41:08.973Z,16924
2019-02-18T07:42:08.968Z,17192
2019-02-18T07:43:09.044Z,17660
2019-02-18T07:44:08.975Z,18468
2019-02-18T07:45:08.968Z,20000
2019-02-18T07:46:09.102Z,20352
2019-02-18T07:47:09.050Z,21440
2019-02-18T07:48:09.063Z,22304
2019-02-18T07:49:09.082Z,23872
2019-02-18T07:50:08.982Z,24640
2019-02-18T07:51:08.995Z,27136
2019-02-18T07:52:09.053Z,30848
2019-02-18T07:53:09.001Z,29984
2019-02-18T07:54:10.325Z,29600
2019-02-18T07:55:08.981Z,31712
2019-02-18T07:56:09.062Z,21728
2019-02-18T07:57:09.024Z,35328
2019-02-18T07:58:09.004Z,33536
2019-02-18T07:59:09.054Z,32992
2019-02-18T08:00:08.982Z,33344
2019-02-18T08:01:09.057Z,34688
2019-02-18T08:02:08.980Z,36992
2019-02-18T08:03:09.049Z,39232
2019-02-18T08:04:09.050Z,40608
2019-02-18T08:05:08.984Z,40544
2019-02-18T08:06:08.990Z,39936
2019-02-18T08:07:09.065Z,40320
2019-02-18T08:08:08.994Z,40832
2019-02-18T08:09:09.015Z,41792
2019-02-18T08:10:12.075Z,43200
2019-02-18T08:11:08.990Z,42944
2019-02-18T08:12:08.996Z,41600
2019-02-18T08:13:09.077Z,39200
2019-02-18T08:14:09.081Z,36448
2019-02-18T08:15:08.965Z,34752
2019-02-18T08:16:08.971Z,35360
2019-02-18T08:17:08.936Z,38176
2019-02-18T08:18:08.993Z,41152
2019-02-18T08:19:08.944Z,43808
2019-02-18T08:20:08.992Z,45632
2019-02-18T08:21:08.996Z,46080
2019-02-18T08:22:09.053Z,47104
2019-02-18T08:23:08.987Z,49664
2019-02-18T08:24:09.065Z,53216
2019-02-18T08:25:08.957Z,56960
2019-02-18T08:26:09.062Z,59584
2019-02-18T08:27:09.019Z,61696
2019-02-18T08:28:09.107Z,64128
2019-02-18T08:29:09.037Z,67008
2019-02-18T08:30:09.091Z,69312
2019-02-18T08:31:09.069Z,70880
2019-02-18T08:32:10.785Z,69248
2019-02-18T08:33:09.149Z,64000
2019-02-18T08:34:09.086Z,67968
2019-02-18T08:35:09.024Z,96192
2019-02-18T08:36:08.928Z,153376
2019-02-18T08:37:08.965Z,162816
2019-02-18T08:38:08.967Z,107712
2019-02-18T08:39:09.052Z,73536
2019-02-18T08:40:09.023Z,116800
2019-02-18T08:41:09.025Z,164000
2019-02-18T08:42:09.027Z,140992
2019-02-18T08:43:09.026Z,107680
2019-02-18T08:44:08.966Z,120608
2019-02-18T08:45:09.024Z,134368
2019-02-18T08:46:09.100Z,110848
2019-02-18T08:48:09.119Z,75168
2019-02-18T08:49:09.100Z,65600
2019-02-18T08:50:09.051Z,43232
2019-02-18T08:51:09.041Z,31392
2019-02-18T08:52:09.113Z,28896
2019-02-18T08:53:09.116Z,28352
2019-02-18T08:54:09.059Z,27680
2019-02-18T08:55:09.042Z,27072
2019-02-18T08:56:09.014Z,26432
2019-02-18T08:57:09.088Z,26304
2019-02-18T08:58:09.019Z,26208
2019-02-18T08:59:11.015Z,26016
2019-02-18T09:00:09.034Z,25920
2019-02-18T09:01:09.017Z,25760
2019-02-18T09:02:09.095Z,25792
2019-02-18T09:03:09.031Z,25824
2019-02-18T09:04:09.016Z,25664
2019-02-18T09:05:09.124Z,25632
2019-02-18T09:06:09.018Z,25504
2019-02-18T09:07:08.959Z,25376
2019-02-18T09:08:08.981Z,25376
2019-02-18T09:09:09.076Z,25408
2019-02-18T09:10:09.037Z,25376
2019-02-18T09:11:09.058Z,25376
2019-02-18T09:12:08.958Z,25440
2019-02-18T09:13:09.072Z,25632
2019-02-18T09:14:08.967Z,25952
2019-02-18T09:15:09.028Z,26176
2019-02-18T09:16:09.311Z,26304
2019-02-18T09:17:08.988Z,26272
2019-02-18T09:18:09.012Z,26496
2019-02-18T09:19:08.985Z,26848
2019-02-18T09:20:09.042Z,27104
2019-02-18T09:21:09.038Z,28704
2019-02-18T09:22:09.114Z,49920
2019-02-18T09:23:08.998Z,57728
2019-02-18T09:24:09.091Z,61248
2019-02-18T09:25:09.114Z,64320
2019-02-18T09:26:09.090Z,60352
2019-02-18T09:27:09.120Z,61792
2019-02-18T09:28:09.082Z,62656
2019-02-18T09:29:09.050Z,64096
2019-02-18T09:30:09.052Z,65536
2019-02-18T09:31:09.056Z,66464
2019-02-18T09:32:09.068Z,67136
2019-02-18T09:33:09.054Z,67200
2019-02-18T09:34:09.129Z,66976
2019-02-18T09:35:09.083Z,66176
2019-02-18T09:36:09.112Z,65792
2019-02-18T09:37:08.993Z,66560
2019-02-18T09:38:09.048Z,68192
2019-02-18T09:39:09.062Z,69856
2019-02-18T09:40:09.080Z,70752
2019-02-18T09:41:09.051Z,70464
2019-02-18T09:42:09.045Z,69632
2019-02-18T09:43:09.013Z,69792
2019-02-18T09:44:09.120Z,71424
2019-02-18T09:45:09.122Z,72064
2019-02-18T09:46:09.136Z,72736
2019-02-18T09:47:09.138Z,72992
2019-02-18T09:48:09.131Z,73408
2019-02-18T09:49:09.155Z,73760
2019-02-18T09:50:09.133Z,73856
2019-02-18T09:51:09.074Z,72800
2019-02-18T09:52:09.144Z,70432
2019-02-18T09:53:09.072Z,68096
2019-02-18T09:54:09.142Z,67200
2019-02-18T09:55:09.087Z,68480
2019-02-18T09:56:09.148Z,70496
2019-02-18T09:57:09.099Z,72704
2019-02-18T09:58:09.082Z,74304
2019-02-18T09:59:09.072Z,75328
2019-02-18T10:00:09.089Z,75168
2019-02-18T10:01:09.211Z,73728
2019-02-18T10:02:09.046Z,72320
2019-02-18T10:03:09.152Z,72096
2019-02-18T10:04:09.149Z,73920
2019-02-18T10:05:09.165Z,76256
2019-02-18T10:06:09.009Z,77952
2019-02-18T10:07:09.070Z,78688
2019-02-18T10:08:09.102Z,78240
2019-02-18T10:09:08.974Z,77728
2019-02-18T10:10:09.105Z,77248
2019-02-18T10:11:09.012Z,78336
2019-02-18T10:12:18.010Z,80608
2019-02-18T10:13:09.100Z,81792
2019-02-18T10:14:09.012Z,81248
2019-02-18T10:15:09.012Z,79616
2019-02-18T10:16:09.126Z,77504
2019-02-18T10:17:09.122Z,75488
2019-02-18T10:18:09.038Z,75168
2019-02-18T10:19:08.999Z,75584
2019-02-18T10:20:09.122Z,75648
2019-02-18T10:21:09.021Z,74688
2019-02-18T10:22:09.079Z,72224
2019-02-18T10:23:09.072Z,69984
2019-02-18T10:24:09.078Z,69312
2019-02-18T10:25:09.114Z,71872
2019-02-18T10:26:09.081Z,75936
2019-02-18T10:27:09.150Z,79936
2019-02-18T10:28:09.152Z,81760
2019-02-18T10:29:09.085Z,81600
2019-02-18T10:30:09.083Z,81504
2019-02-18T10:31:09.154Z,81600
2019-02-18T10:32:09.082Z,82272
2019-02-18T10:33:09.374Z,84576
2019-02-18T10:34:09.166Z,86112
2019-02-18T10:35:09.092Z,85824
2019-02-18T10:36:09.141Z,83904
2019-02-18T10:37:09.085Z,81024
2019-02-18T10:38:09.066Z,79424
2019-02-18T10:39:09.184Z,79456
2019-02-18T10:40:09.092Z,80064
2019-02-18T10:41:09.106Z,79552
2019-02-18T10:42:09.162Z,78816
2019-02-18T10:43:09.135Z,77792
2019-02-18T10:44:09.031Z,78016
2019-02-18T10:45:09.116Z,78496
2019-02-18T10:46:09.106Z,79648
2019-02-18T10:47:09.187Z,81024
2019-02-18T10:48:09.215Z,81280
2019-02-18T10:49:19.280Z,79040
2019-02-18T10:50:09.106Z,76704
2019-02-18T10:51:09.109Z,75936
2019-02-18T10:52:09.128Z,76928
2019-02-18T10:53:09.186Z,77952
2019-02-18T10:54:09.119Z,80320
2019-02-18T10:55:09.182Z,82688
2019-02-18T10:56:09.177Z,84000
2019-02-18T10:57:09.100Z,84192
2019-02-18T10:58:09.177Z,82048
2019-02-18T10:59:09.174Z,78368
2019-02-18T11:00:09.134Z,76832
2019-02-18T11:01:09.181Z,77120
2019-02-18T11:02:09.107Z,78656
2019-02-18T11:03:09.107Z,80384
2019-02-18T11:04:09.179Z,81376
2019-02-18T11:05:09.107Z,82176
2019-02-18T11:06:09.439Z,82656
2019-02-18T11:07:09.238Z,82496
2019-02-18T11:08:09.090Z,81728
2019-02-18T11:09:09.189Z,82464
2019-02-18T11:10:09.114Z,84224
2019-02-18T11:11:16.639Z,85472
2019-02-18T11:12:09.115Z,86080
2019-02-18T11:13:09.191Z,85696
2019-02-18T11:14:09.121Z,84256
2019-02-18T11:15:09.138Z,82368
2019-02-18T11:16:09.111Z,81408
2019-02-18T11:17:09.189Z,82592
2019-02-18T11:18:09.127Z,84128
2019-02-18T11:19:09.189Z,84608
2019-02-18T11:20:09.237Z,84416
2019-02-18T11:21:09.124Z,83456
2019-02-18T11:22:09.197Z,81408
2019-02-18T11:23:09.126Z,80896
2019-02-18T11:24:09.192Z,80288
2019-02-18T11:25:09.121Z,78688
2019-02-18T11:26:09.193Z,78016
2019-02-18T11:27:09.240Z,78208
2019-02-18T11:28:09.206Z,77856
2019-02-18T11:29:09.207Z,79008
2019-02-18T11:30:09.136Z,81152
2019-02-18T11:31:09.139Z,81408
2019-02-18T11:32:09.152Z,80704
2019-02-18T11:33:09.141Z,80384
2019-02-18T11:34:09.148Z,79776
2019-02-18T11:35:09.209Z,79744
2019-02-18T11:36:09.211Z,80256
2019-02-18T11:37:09.199Z,80448
2019-02-18T11:38:09.131Z,80256
2019-02-18T11:39:09.201Z,78752
2019-02-18T11:40:09.144Z,77376
2019-02-18T11:41:09.262Z,77216
2019-02-18T11:42:09.204Z,78560
2019-02-18T11:43:09.207Z,80192
2019-02-18T11:44:09.131Z,81536
2019-02-18T11:45:09.214Z,81120
2019-02-18T11:46:09.142Z,81216
2019-02-18T11:47:09.136Z,81632
2019-02-18T11:48:09.138Z,83200
2019-02-18T11:49:09.138Z,83328
2019-02-18T11:50:09.215Z,82304
2019-02-18T11:51:09.091Z,79360
2019-02-18T11:52:09.137Z,76896
2019-02-18T11:53:09.160Z,76800
2019-02-18T11:54:09.145Z,78560
2019-02-18T11:55:09.219Z,80288
2019-02-18T11:56:09.143Z,81888
2019-02-18T11:57:09.216Z,82784
2019-02-18T11:58:09.220Z,81920
2019-02-18T11:59:09.150Z,80416
2019-02-18T12:00:09.218Z,78144
2019-02-18T12:01:09.151Z,76032
2019-02-18T12:02:09.220Z,74272
2019-02-18T12:03:12.453Z,73568
2019-02-18T12:04:09.154Z,73920
2019-02-18T12:05:09.220Z,76064
2019-02-18T12:06:09.151Z,78496
2019-02-18T12:07:09.232Z,79968
2019-02-18T12:08:09.189Z,80352
2019-02-18T12:09:09.168Z,79072
2019-02-18T12:10:09.163Z,76416
2019-02-18T12:11:09.183Z,74720
2019-02-18T12:12:09.162Z,75296
2019-02-18T12:13:09.243Z,76928
2019-02-18T12:14:09.177Z,76928
2019-02-18T12:15:09.242Z,76736
2019-02-18T12:16:09.211Z,77088
2019-02-18T12:17:09.167Z,76992
2019-02-18T12:18:09.246Z,76896
2019-02-18T12:19:09.241Z,79040
2019-02-18T12:20:09.172Z,82368
2019-02-18T12:21:09.261Z,83392
2019-02-18T12:22:09.242Z,81504
2019-02-18T12:23:09.261Z,78272
2019-02-18T12:24:09.172Z,74016
2019-02-18T12:25:09.245Z,71328
2019-02-18T12:26:09.240Z,71872
2019-02-18T12:27:09.232Z,74432
2019-02-18T12:28:09.177Z,78976
2019-02-18T12:29:09.266Z,82560
2019-02-18T12:30:09.144Z,82816
2019-02-18T12:31:09.265Z,79424
2019-02-18T12:32:09.251Z,75584
2019-02-18T12:33:09.362Z,74016
2019-02-18T12:34:09.222Z,76960
2019-02-18T12:35:09.252Z,81184
2019-02-18T12:36:09.254Z,82592
2019-02-18T12:37:09.173Z,79936
2019-02-18T12:38:09.246Z,76096
2019-02-18T12:39:09.186Z,73280
2019-02-18T12:40:09.243Z,72512
2019-02-18T12:41:09.223Z,74912
2019-02-18T12:42:09.189Z,77696
2019-02-18T12:43:09.178Z,79072
2019-02-18T12:44:09.171Z,77920
2019-02-18T12:45:09.179Z,75328
2019-02-18T12:46:15.829Z,73344
2019-02-18T12:47:09.256Z,72192
2019-02-18T12:48:09.175Z,73216
2019-02-18T12:49:09.251Z,73248
2019-02-18T12:50:09.181Z,71392
2019-02-18T12:51:09.251Z,69600
2019-02-18T12:52:09.185Z,68832
2019-02-18T12:53:09.257Z,69280
2019-02-18T12:54:09.175Z,70784
2019-02-18T12:55:09.335Z,72864
2019-02-18T12:56:09.180Z,74560
2019-02-18T12:57:09.259Z,74080
2019-02-18T12:58:09.264Z,72832
2019-02-18T12:59:09.265Z,70720
2019-02-18T13:00:09.360Z,69088
2019-02-18T13:01:09.260Z,68768
2019-02-18T13:02:09.191Z,69504
2019-02-18T13:03:09.261Z,69728
2019-02-18T13:04:09.266Z,69344
2019-02-18T13:05:09.200Z,68960
2019-02-18T13:06:09.267Z,68256
2019-02-18T13:07:09.265Z,67424
2019-02-18T13:08:09.426Z,65696
2019-02-18T13:09:09.178Z,64640
2019-02-18T13:10:09.268Z,65312
2019-02-18T13:11:09.251Z,65984
2019-02-18T13:12:09.268Z,67392
2019-02-18T13:13:09.194Z,69248
2019-02-18T13:14:09.173Z,70112
2019-02-18T13:15:09.251Z,70112
2019-02-18T13:16:09.193Z,70080
2019-02-18T13:17:09.218Z,70048
2019-02-18T13:18:09.219Z,69472
2019-02-18T13:19:09.275Z,68256
2019-02-18T13:20:09.293Z,67840
2019-02-18T13:21:09.227Z,69472
2019-02-18T13:22:09.246Z,71584
2019-02-18T13:23:09.286Z,73056
2019-02-18T13:24:09.230Z,73184
2019-02-18T13:25:09.307Z,71232
2019-02-18T13:26:09.228Z,68064
2019-02-18T13:27:09.158Z,64704
2019-02-18T13:28:09.214Z,62848
2019-02-18T13:29:09.102Z,63392
2019-02-18T13:30:09.223Z,65792
2019-02-18T13:31:09.214Z,67488
2019-02-18T13:32:09.215Z,66400
2019-02-18T13:33:09.107Z,64064
2019-02-18T13:34:09.228Z,62400
2019-02-18T13:35:09.182Z,61696
2019-02-18T13:36:09.121Z,62144
2019-02-18T13:37:09.217Z,63296
2019-02-18T13:38:09.290Z,64448
2019-02-18T13:39:09.217Z,64608
2019-02-18T13:40:09.294Z,63904
2019-02-18T13:41:09.221Z,62656
2019-02-18T13:42:09.289Z,62272
2019-02-18T13:43:09.236Z,62912
2019-02-18T13:44:09.293Z,63456
2019-02-18T13:45:09.215Z,63488